Time;durP1;ratioP1;P1;durP2;ratioP2;P2;SDS_P1;SDS_P2;PMS_P1;PMS_P2;Temp;Humidity;BMP_temperature;BMP_pressure;BME280_temperature;BME280_humidity;BME280_pressure;Samples;Min_cycle;Max_cycle;Signal;HPM_P1;HPM_P2
2021/09/24 00:01:51;;;;;;;;;;;20.60;69.10;;;;;;5034687;28;1362;-69
2021/09/24 00:04:16;;;;;;;;;;;20.60;69.10;;;;;;5034663;28;1659;-68
2021/09/24 00:06:42;;;;;;;;;;;20.60;69.10;;;;;;5034691;28;1777;-68
2021/09/24 00:09:07;;;;;;;;;;;20.60;69.20;;;;;;5017200;28;1682;-68
2021/09/24 00:11:33;;;;;;;;;;;20.60;69.20;;;;;;5017096;28;1960;-69
2021/09/24 00:13:59;;;;;;;;;;;20.60;69.20;;;;;;5034823;28;1491;-68
2021/09/24 00:16:24;;;;;;;;;;;20.60;69.20;;;;;;5034111;28;1705;-68
2021/09/24 00:18:50;;;;;;;;;;;20.60;69.20;;;;;;5033689;28;1365;-68
2021/09/24 00:21:15;;;;;;;;;;;20.60;69.20;;;;;;5033358;28;1473;-70
2021/09/24 00:23:40;;;;;;;;;;;20.60;69.20;;;;;;5034547;28;1396;-69
2021/09/24 00:26:06;;;;;;;;;;;20.60;69.20;;;;;;5034362;28;1593;-69
2021/09/24 00:28:31;;;;;;;;;;;20.60;69.20;;;;;;5034466;28;1626;-69
2021/09/24 00:30:57;;;;;;;;;;;20.60;69.20;;;;;;5034046;28;1977;-69
2021/09/24 00:33:27;;;;;;;;;;;20.60;69.20;;;;;;5034040;28;1348;-69
2021/09/24 00:35:52;;;;;;;;;;;20.60;69.20;;;;;;5033361;28;1653;-67
2021/09/24 00:38:18;;;;;;;;;;;20.60;70.00;;;;;;5033792;28;1339;-70
2021/09/24 00:40:43;;;;;;;;;;;20.60;69.30;;;;;;5033007;28;1681;-70
2021/09/24 00:43:09;;;;;;;;;;;20.60;69.30;;;;;;5033902;28;1356;-70
2021/09/24 00:45:34;;;;;;;;;;;20.60;69.40;;;;;;5016183;28;1598;-70
2021/09/24 00:48:00;;;;;;;;;;;20.60;69.30;;;;;;5033936;28;1291;-70
2021/09/24 00:50:25;;;;;;;;;;;20.60;69.40;;;;;;5033892;28;1430;-70
2021/09/24 00:52:54;;;;;;;;;;;20.60;69.40;;;;;;5016233;28;1887;-70
2021/09/24 00:55:20;;;;;;;;;;;20.60;69.40;;;;;;5033705;28;1618;-70
2021/09/24 00:57:45;;;;;;;;;;;20.60;70.10;;;;;;5033757;28;1387;-70
2021/09/24 01:00:11;;;;;;;;;;;20.60;69.40;;;;;;5032381;28;1361;-70
2021/09/24 01:02:37;;;;;;;;;;;20.60;69.40;;;;;;5033146;28;1600;-69
2021/09/24 01:05:02;;;;;;;;;;;20.60;69.40;;;;;;5033743;28;1587;-70
2021/09/24 01:07:28;;;;;;;;;;;20.60;69.40;;;;;;5033590;28;1365;-70
2021/09/24 01:09:54;;;;;;;;;;;20.60;69.40;;;;;;5015635;28;1598;-68
2021/09/24 01:12:20;;;;;;;;;;;20.60;69.40;;;;;;5033466;28;1965;-69
2021/09/24 01:14:45;;;;;;;;;;;20.60;69.40;;;;;;5015702;28;1518;-69
2021/09/24 01:17:10;;;;;;;;;;;20.60;69.40;;;;;;5033137;28;1656;-68
2021/09/24 01:19:36;;;;;;;;;;;20.60;69.40;;;;;;5032950;28;1417;-68
2021/09/24 01:22:01;;;;;;;;;;;20.60;69.40;;;;;;5033242;28;1674;-70
2021/09/24 01:24:27;;;;;;;;;;;20.60;69.40;;;;;;5033401;28;1662;-69
2021/09/24 01:26:53;;;;;;;;;;;20.60;69.40;;;;;;5033087;28;1343;-69
2021/09/24 01:29:19;;;;;;;;;;;20.60;69.50;;;;;;5015799;28;1680;-69
2021/09/24 01:31:44;;;;;;;;;;;20.60;69.40;;;;;;5015161;28;1966;-70
2021/09/24 01:34:09;;;;;;;;;;;20.60;69.50;;;;;;5033331;28;1622;-68
2021/09/24 01:36:35;;;;;;;;;;;20.60;69.50;;;;;;5033118;28;1676;-69
2021/09/24 01:39:04;;;;;;;;;;;20.60;69.50;;;;;;5033390;28;1578;-69
2021/09/24 01:41:29;;;;;;;;;;;20.60;69.50;;;;;;5031840;28;1744;-71
2021/09/24 01:43:54;;;;;;;;;;;20.60;69.50;;;;;;5032902;28;1200;-70
2021/09/24 01:46:20;;;;;;;;;;;20.60;69.50;;;;;;5031931;28;1665;-68
2021/09/24 01:48:45;;;;;;;;;;;20.60;69.60;;;;;;5032223;28;1409;-69
2021/09/24 01:51:11;;;;;;;;;;;20.60;69.60;;;;;;5032574;28;1906;-70
2021/09/24 01:53:36;;;;;;;;;;;20.60;69.60;;;;;;5002819;28;1720;-69
2021/09/24 01:56:02;;;;;;;;;;;20.60;69.50;;;;;;5013138;28;1393;-69
2021/09/24 01:58:27;;;;;;;;;;;20.60;69.60;;;;;;5013167;28;1690;-69
2021/09/24 02:00:52;;;;;;;;;;;20.60;69.60;;;;;;5011617;28;1612;-69
2021/09/24 02:03:18;;;;;;;;;;;20.60;69.60;;;;;;5012540;28;1585;-70
2021/09/24 02:05:43;;;;;;;;;;;20.60;69.60;;;;;;5012775;28;1648;-70
2021/09/24 02:08:09;;;;;;;;;;;20.60;69.60;;;;;;5012785;28;1687;-69
2021/09/24 02:10:34;;;;;;;;;;;20.60;69.60;;;;;;5012674;28;1531;-70
2021/09/24 02:13:01;;;;;;;;;;;20.60;69.60;;;;;;5013146;28;1953;-70
2021/09/24 02:15:27;;;;;;;;;;;20.60;69.60;;;;;;5019575;28;1511;-70
2021/09/24 02:17:52;;;;;;;;;;;20.60;69.60;;;;;;5032601;28;1360;-70
2021/09/24 02:20:18;;;;;;;;;;;20.60;69.60;;;;;;5031866;28;1737;-70
2021/09/24 02:22:43;;;;;;;;;;;20.60;69.70;;;;;;5032448;28;1718;-70
2021/09/24 02:25:09;;;;;;;;;;;20.60;69.70;;;;;;5014744;28;1444;-70
2021/09/24 02:27:34;;;;;;;;;;;20.60;69.60;;;;;;5032610;28;1296;-69
2021/09/24 02:29:59;;;;;;;;;;;20.60;69.70;;;;;;5032463;28;1628;-71
2021/09/24 02:32:25;;;;;;;;;;;20.60;69.70;;;;;;5032676;28;1910;-70
2021/09/24 02:34:51;;;;;;;;;;;20.60;69.70;;;;;;5013124;28;1385;-70
2021/09/24 02:37:16;;;;;;;;;;;20.60;69.70;;;;;;4998004;28;1731;-69
2021/09/24 02:39:42;;;;;;;;;;;20.60;69.70;;;;;;5032040;28;1728;-70
2021/09/24 02:42:07;;;;;;;;;;;20.60;69.70;;;;;;5031669;28;1590;-70
2021/09/24 02:44:32;;;;;;;;;;;20.60;69.70;;;;;;5031938;28;1459;-70
2021/09/24 02:46:58;;;;;;;;;;;20.60;69.80;;;;;;5031379;28;1404;-70
2021/09/24 02:49:23;;;;;;;;;;;20.60;69.80;;;;;;5014195;28;1629;-70
2021/09/24 02:51:49;;;;;;;;;;;20.60;69.80;;;;;;5032319;28;1963;-70
2021/09/24 02:54:14;;;;;;;;;;;20.60;69.80;;;;;;5014859;28;1673;-70
2021/09/24 02:56:40;;;;;;;;;;;20.60;69.80;;;;;;5031979;28;1347;-70
2021/09/24 02:59:05;;;;;;;;;;;20.60;69.80;;;;;;5032523;28;1347;-70
2021/09/24 03:01:30;;;;;;;;;;;20.60;69.80;;;;;;5035668;28;1335;-70
2021/09/24 03:03:56;;;;;;;;;;;20.60;69.80;;;;;;5035883;28;1300;-70
2021/09/24 03:06:22;;;;;;;;;;;20.60;69.80;;;;;;5035941;28;1279;-70
2021/09/24 03:08:47;;;;;;;;;;;20.60;69.80;;;;;;5018148;28;1399;-69
2021/09/24 03:11:12;;;;;;;;;;;20.60;69.80;;;;;;5017789;28;1965;-70
2021/09/24 03:13:38;;;;;;;;;;;20.60;69.80;;;;;;5035541;28;1371;-71
2021/09/24 03:16:04;;;;;;;;;;;20.60;69.80;;;;;;5035631;28;1302;-70
2021/09/24 03:18:30;;;;;;;;;;;20.60;69.80;;;;;;5035684;28;1230;-70
2021/09/24 03:20:55;;;;;;;;;;;20.60;69.80;;;;;;5035522;28;1172;-70
2021/09/24 03:23:21;;;;;;;;;;;20.60;69.90;;;;;;5035652;28;1374;-70
2021/09/24 03:25:46;;;;;;;;;;;20.60;69.80;;;;;;5017940;28;1399;-70
2021/09/24 03:28:12;;;;;;;;;;;20.60;69.80;;;;;;5035886;28;1281;-70
2021/09/24 03:30:37;;;;;;;;;;;20.60;69.80;;;;;;5017884;28;1351;-70
2021/09/24 03:33:03;;;;;;;;;;;20.60;69.80;;;;;;5030986;28;1902;-70
2021/09/24 03:35:28;;;;;;;;;;;20.60;69.90;;;;;;5026677;28;1322;-70
2021/09/24 03:37:54;;;;;;;;;;;20.60;69.90;;;;;;5035320;28;1501;-70
2021/09/24 03:40:19;;;;;;;;;;;20.60;69.90;;;;;;5035155;28;1305;-70
2021/09/24 03:42:44;;;;;;;;;;;20.60;69.90;;;;;;5031004;28;1092;-70
2021/09/24 03:45:10;;;;;;;;;;;20.60;69.90;;;;;;5015444;28;1111;-70
2021/09/24 03:47:35;;;;;;;;;;;20.60;69.90;;;;;;5015343;28;1386;-70
2021/09/24 03:50:01;;;;;;;;;;;20.60;69.90;;;;;;5015335;28;1245;-70
2021/09/24 03:52:26;;;;;;;;;;;20.60;69.90;;;;;;5019111;28;1902;-70
2021/09/24 03:54:52;;;;;;;;;;;20.60;69.90;;;;;;5035135;28;1644;-70
2021/09/24 03:57:17;;;;;;;;;;;20.60;69.90;;;;;;5034991;28;1201;-70
2021/09/24 03:59:43;;;;;;;;;;;20.60;69.90;;;;;;5034860;28;808;-70
2021/09/24 04:02:08;;;;;;;;;;;20.60;69.90;;;;;;5021744;28;1197;-70
2021/09/24 04:04:33;;;;;;;;;;;20.60;69.90;;;;;;5034850;28;1155;-70
2021/09/24 04:06:59;;;;;;;;;;;20.60;69.90;;;;;;5017982;28;1365;-70
2021/09/24 04:09:24;;;;;;;;;;;20.60;69.90;;;;;;5014856;28;1366;-70
2021/09/24 04:11:50;;;;;;;;;;;20.60;69.90;;;;;;5013966;28;1958;-70
2021/09/24 04:14:15;;;;;;;;;;;20.60;70.00;;;;;;5025696;28;1186;-70
2021/09/24 04:16:41;;;;;;;;;;;20.60;70.00;;;;;;5034566;28;1254;-70
2021/09/24 04:19:06;;;;;;;;;;;20.60;70.00;;;;;;5017005;28;1108;-70
2021/09/24 04:21:31;;;;;;;;;;;20.60;70.00;;;;;;5034334;28;1295;-70
2021/09/24 04:23:57;;;;;;;;;;;20.60;70.00;;;;;;5033578;28;1139;-70
2021/09/24 04:26:22;;;;;;;;;;;20.60;70.00;;;;;;5017007;28;1297;-70
2021/09/24 04:28:48;;;;;;;;;;;20.60;70.00;;;;;;5012905;28;1331;-70
2021/09/24 04:31:13;;;;;;;;;;;20.60;70.00;;;;;;5013656;28;1965;-70
2021/09/24 04:33:39;;;;;;;;;;;20.60;70.00;;;;;;5023383;28;1060;-70
2021/09/24 04:36:04;;;;;;;;;;;20.60;70.00;;;;;;5034095;28;1328;-70
2021/09/24 04:38:30;;;;;;;;;;;20.60;70.00;;;;;;5034172;28;1233;-70
2021/09/24 04:40:55;;;;;;;;;;;20.60;70.00;;;;;;5031832;28;1198;-70
2021/09/24 04:43:21;;;;;;;;;;;20.60;70.00;;;;;;5014259;28;1337;-70
2021/09/24 04:45:46;;;;;;;;;;;20.60;70.00;;;;;;5011783;28;1322;-70
2021/09/24 04:48:12;;;;;;;;;;;20.60;70.00;;;;;;5034124;28;1022;-70
2021/09/24 04:50:37;;;;;;;;;;;20.60;70.00;;;;;;5031957;28;1182;-70
2021/09/24 04:53:03;;;;;;;;;;;20.60;70.00;;;;;;5014222;28;1878;-70
2021/09/24 04:55:28;;;;;;;;;;;20.60;70.00;;;;;;5029134;28;1111;-70
2021/09/24 04:57:53;;;;;;;;;;;20.60;70.00;;;;;;5033779;28;1258;-70
2021/09/24 05:00:19;;;;;;;;;;;20.60;70.10;;;;;;5033530;28;1108;-70
2021/09/24 05:02:44;;;;;;;;;;;20.60;70.10;;;;;;5033876;28;1127;-70
2021/09/24 05:05:10;;;;;;;;;;;20.60;70.00;;;;;;5019069;28;1366;-70
2021/09/24 05:07:35;;;;;;;;;;;20.60;70.10;;;;;;5014092;28;1229;-70
2021/09/24 05:10:01;;;;;;;;;;;20.60;70.10;;;;;;5013983;28;1296;-70
2021/09/24 05:12:26;;;;;;;;;;;20.60;70.10;;;;;;5004201;28;1979;-70
2021/09/24 05:14:52;;;;;;;;;;;20.60;70.10;;;;;;5046930;28;1312;-70
2021/09/24 05:17:17;;;;;;;;;;;20.60;70.10;;;;;;5033502;28;1302;-70
2021/09/24 05:19:43;;;;;;;;;;;20.60;70.10;;;;;;5033404;28;1056;-70
2021/09/24 05:22:08;;;;;;;;;;;20.60;70.10;;;;;;5033364;28;1268;-70
2021/09/24 05:24:33;;;;;;;;;;;20.60;70.10;;;;;;5031984;28;1150;-70
2021/09/24 05:27:00;;;;;;;;;;;20.60;70.10;;;;;;5013345;28;1318;-70
2021/09/24 05:29:28;;;;;;;;;;;20.60;70.10;;;;;;5028337;28;1139;-70
2021/09/24 05:31:54;;;;;;;;;;;20.60;70.10;;;;;;5015594;28;1906;-70
2021/09/24 05:34:19;;;;;;;;;;;20.60;70.10;;;;;;5031526;28;1132;-70
2021/09/24 05:36:45;;;;;;;;;;;20.60;70.10;;;;;;5021858;28;1373;-70
2021/09/24 05:39:10;;;;;;;;;;;20.60;70.10;;;;;;5015710;28;1335;-70
2021/09/24 05:41:35;;;;;;;;;;;20.60;70.10;;;;;;5032176;28;1338;-70
2021/09/24 05:44:01;;;;;;;;;;;20.60;70.10;;;;;;5018120;28;1864;-68
2021/09/24 05:46:26;;;;;;;;;;;20.60;70.10;;;;;;5028388;28;1210;-68
2021/09/24 05:48:52;;;;;;;;;;;20.60;70.10;;;;;;5009454;28;1968;-68
2021/09/24 05:51:17;;;;;;;;;;;20.60;70.10;;;;;;5025838;28;1965;-67
2021/09/24 05:53:43;;;;;;;;;;;20.60;70.10;;;;;;5031543;28;1266;-68
2021/09/24 05:56:08;;;;;;;;;;;20.60;70.00;;;;;;5025636;28;1357;-70
2021/09/24 05:58:33;;;;;;;;;;;20.60;70.00;;;;;;5032856;28;1148;-68
2021/09/24 06:00:59;;;;;;;;;;;20.70;70.00;;;;;;5032533;28;1292;-72
2021/09/24 06:03:24;;;;;;;;;;;20.70;69.90;;;;;;5032903;28;1001;-72
2021/09/24 06:05:50;;;;;;;;;;;20.70;69.10;;;;;;5014458;28;1298;-72
2021/09/24 06:08:15;;;;;;;;;;;20.70;68.20;;;;;;5033050;28;1505;-72
2021/09/24 06:10:40;;;;;;;;;;;20.70;67.60;;;;;;5014858;28;1297;-72
2021/09/24 06:13:06;;;;;;;;;;;20.80;67.10;;;;;;5032529;28;1898;-72
2021/09/24 06:15:32;;;;;;;;;;;20.80;66.80;;;;;;5032963;28;1247;-72
2021/09/24 06:17:57;;;;;;;;;;;20.80;66.10;;;;;;5014729;28;1388;-72
2021/09/24 06:20:22;;;;;;;;;;;20.80;65.00;;;;;;5032348;28;1180;-72
2021/09/24 06:22:48;;;;;;;;;;;20.80;64.90;;;;;;5032629;28;1290;-73
2021/09/24 06:25:13;;;;;;;;;;;20.80;64.90;;;;;;5032689;28;1100;-72
2021/09/24 06:27:39;;;;;;;;;;;20.80;64.80;;;;;;5032326;28;1392;-73
2021/09/24 06:30:05;;;;;;;;;;;20.80;64.70;;;;;;5032558;28;1516;-72
2021/09/24 06:32:30;;;;;;;;;;;20.80;63.60;;;;;;5015185;28;1906;-72
2021/09/24 06:34:56;;;;;;;;;;;20.90;63.00;;;;;;5016634;28;1186;-72
2021/09/24 06:37:21;;;;;;;;;;;20.90;63.80;;;;;;5023329;28;1286;-72
2021/09/24 06:39:47;;;;;;;;;;;20.90;62.80;;;;;;5016555;28;1930;-72
2021/09/24 06:42:12;;;;;;;;;;;20.90;62.80;;;;;;5016402;28;1299;-72
2021/09/24 06:44:38;;;;;;;;;;;20.90;62.80;;;;;;4998985;28;1407;-73
2021/09/24 06:47:03;;;;;;;;;;;20.90;63.20;;;;;;5016433;28;1347;-72
2021/09/24 06:49:29;;;;;;;;;;;20.90;62.60;;;;;;5016579;28;1580;-72
2021/09/24 06:51:55;;;;;;;;;;;20.90;62.10;;;;;;5016144;28;1903;-72
2021/09/24 06:54:20;;;;;;;;;;;20.90;62.00;;;;;;5016482;28;1441;-72
2021/09/24 06:56:46;;;;;;;;;;;20.90;61.90;;;;;;5016038;28;1295;-71
2021/09/24 06:59:11;;;;;;;;;;;20.90;61.90;;;;;;4998882;28;1355;-72
2021/09/24 07:01:37;;;;;;;;;;;20.90;61.60;;;;;;4998554;28;1357;-71
2021/09/24 07:04:02;;;;;;;;;;;20.90;62.10;;;;;;5016141;28;1387;-71
2021/09/24 07:06:28;;;;;;;;;;;20.90;62.00;;;;;;5016186;28;1348;-72
2021/09/24 07:08:53;;;;;;;;;;;20.90;61.40;;;;;;4998530;28;1348;-71
2021/09/24 07:11:19;;;;;;;;;;;20.90;61.40;;;;;;5015848;28;1910;-72
2021/09/24 07:13:44;;;;;;;;;;;20.90;61.90;;;;;;5022085;28;1354;-71
2021/09/24 07:16:09;;;;;;;;;;;20.90;61.20;;;;;;5035733;28;1296;-71
2021/09/24 07:18:35;;;;;;;;;;;20.90;61.70;;;;;;5035695;28;1347;-70
2021/09/24 07:21:00;;;;;;;;;;;20.90;61.20;;;;;;5035268;28;1231;-71
2021/09/24 07:23:26;;;;;;;;;;;20.90;60.70;;;;;;5035885;28;1339;-72
2021/09/24 07:25:52;;;;;;;;;;;20.90;61.20;;;;;;5035403;28;1360;-72
2021/09/24 07:28:17;;;;;;;;;;;20.90;61.20;;;;;;5035768;28;1335;-71
2021/09/24 07:30:43;;;;;;;;;;;20.80;61.40;;;;;;5017621;28;1283;-71
2021/09/24 07:33:08;;;;;;;;;;;20.80;61.10;;;;;;5035783;28;1977;-71
2021/09/24 07:35:34;;;;;;;;;;;20.80;60.90;;;;;;5032803;28;1948;-71
2021/09/24 07:37:59;;;;;;;;;;;20.90;61.20;;;;;;5017495;28;1621;-71
2021/09/24 07:40:25;;;;;;;;;;;20.80;61.40;;;;;;5017291;28;1302;-71
2021/09/24 07:42:50;;;;;;;;;;;20.80;61.40;;;;;;5035397;28;1299;-71
2021/09/24 07:45:15;;;;;;;;;;;20.80;61.60;;;;;;5034813;28;1287;-71
2021/09/24 07:47:41;;;;;;;;;;;20.80;61.40;;;;;;5029790;28;1260;-71
2021/09/24 07:50:07;;;;;;;;;;;20.80;60.50;;;;;;4997768;28;1081;-71
2021/09/24 07:52:32;;;;;;;;;;;20.80;61.90;;;;;;5015264;28;1899;-71
2021/09/24 07:54:58;;;;;;;;;;;20.80;61.70;;;;;;5014991;28;1081;-71
2021/09/24 07:57:23;;;;;;;;;;;20.80;61.40;;;;;;4997855;28;1783;-71
2021/09/24 07:59:49;;;;;;;;;;;20.80;61.00;;;;;;4997572;28;1389;-71
2021/09/24 08:02:14;;;;;;;;;;;20.70;61.50;;;;;;5015049;28;1323;-71
2021/09/24 08:04:40;;;;;;;;;;;20.70;61.10;;;;;;5026062;28;1300;-71
2021/09/24 08:07:06;;;;;;;;;;;20.70;61.30;;;;;;5034716;28;1283;-71
2021/09/24 08:09:32;;;;;;;;;;;20.80;61.60;;;;;;5017060;28;1073;-71
2021/09/24 08:11:57;;;;;;;;;;;20.70;61.30;;;;;;5034351;28;1898;-71
2021/09/24 08:14:22;;;;;;;;;;;20.70;61.40;;;;;;5045998;28;1202;-71
2021/09/24 08:16:48;;;;;;;;;;;20.70;61.20;;;;;;5018679;28;1223;-71
2021/09/24 08:19:13;;;;;;;;;;;20.70;61.00;;;;;;5034648;28;1394;-71
2021/09/24 08:21:39;;;;;;;;;;;20.70;61.10;;;;;;5034285;28;1347;-71
2021/09/24 08:24:04;;;;;;;;;;;20.70;60.80;;;;;;5034379;28;1313;-71
2021/09/24 08:26:30;;;;;;;;;;;20.70;61.30;;;;;;5034275;28;1286;-71
2021/09/24 08:28:55;;;;;;;;;;;20.70;61.30;;;;;;5034550;28;1088;-71
2021/09/24 08:31:21;;;;;;;;;;;20.70;61.00;;;;;;5016370;28;1914;-71
2021/09/24 08:33:49;;;;;;;;;;;20.70;60.90;;;;;;5034933;28;1249;-71
2021/09/24 08:36:14;;;;;;;;;;;20.70;61.40;;;;;;5034088;28;1465;-72
2021/09/24 08:38:40;;;;;;;;;;;20.70;61.90;;;;;;5016561;28;1355;-71
2021/09/24 08:41:05;;;;;;;;;;;20.70;61.90;;;;;;5016055;28;1085;-71
2021/09/24 08:43:31;;;;;;;;;;;20.60;61.10;;;;;;5034304;28;1311;-71
2021/09/24 08:45:56;;;;;;;;;;;20.60;61.50;;;;;;5016331;28;1329;-71
2021/09/24 08:48:21;;;;;;;;;;;20.60;61.70;;;;;;5034135;28;1056;-71
2021/09/24 08:50:50;;;;;;;;;;;20.60;61.60;;;;;;5016108;28;1138;-70
2021/09/24 08:53:15;;;;;;;;;;;20.60;61.60;;;;;;5016637;28;1895;-71
2021/09/24 08:55:41;;;;;;;;;;;20.60;61.60;;;;;;5033829;28;1080;-71
2021/09/24 08:58:07;;;;;;;;;;;20.60;61.20;;;;;;5015964;28;1298;-71
2021/09/24 09:00:32;;;;;;;;;;;20.60;61.00;;;;;;5033634;28;1319;-71
2021/09/24 09:03:02;;;;;;;;;;;20.60;61.10;;;;;;5033928;28;1389;-71
2021/09/24 09:05:28;;;;;;;;;;;20.60;61.70;;;;;;5033760;28;1108;-71
2021/09/24 09:08:31;;;;;;;;;;;20.60;61.10;;;;;;5033484;28;1243;-71
2021/09/24 09:11:06;;;;;;;;;;;20.60;61.00;;;;;;4981977;28;1906;-71
2021/09/24 09:13:39;;;;;;;;;;;20.60;61.00;;;;;;5031539;28;1187;-71
2021/09/24 09:16:05;;;;;;;;;;;20.60;61.00;;;;;;5033530;28;1397;-71
2021/09/24 09:18:31;;;;;;;;;;;20.60;60.70;;;;;;5033382;28;1278;-71
2021/09/24 09:20:57;;;;;;;;;;;20.60;61.40;;;;;;5015746;28;1263;-71
2021/09/24 09:23:23;;;;;;;;;;;20.60;61.10;;;;;;5015796;28;1682;-71
2021/09/24 09:25:49;;;;;;;;;;;20.60;60.80;;;;;;5015867;28;1266;-71
2021/09/24 09:28:35;;;;;;;;;;;20.60;61.70;;;;;;5069498;23;1938;-70
2021/09/24 09:31:00;;;;;;;;;;;20.60;61.10;;;;;;5038427;28;1906;-70
2021/09/24 09:33:27;;;;;;;;;;;20.60;61.10;;;;;;5053339;28;1269;-70
2021/09/24 09:35:54;;;;;;;;;;;20.60;61.60;;;;;;5035411;28;1080;-69
2021/09/24 09:38:20;;;;;;;;;;;20.60;61.30;;;;;;5035172;28;1331;-70
2021/09/24 09:40:47;;;;;;;;;;;20.60;60.90;;;;;;5034928;28;1151;-70
2021/09/24 09:43:20;;;;;;;;;;;20.60;61.10;;;;;;5035233;28;1246;-70
2021/09/24 09:45:45;;;;;;;;;;;20.60;61.60;;;;;;5035332;28;1300;-70
2021/09/24 09:48:13;;;;;;;;;;;20.60;61.40;;;;;;5052855;28;1301;-70
2021/09/24 09:50:39;;;;;;;;;;;20.60;61.40;;;;;;5052900;28;1387;-70
2021/09/24 09:53:10;;;;;;;;;;;20.60;61.60;;;;;;5035105;28;1961;-70
2021/09/24 09:56:02;;;;;;;;;;;20.60;61.60;;;;;;5018635;28;1310;-70
2021/09/24 09:58:28;;;;;;;;;;;20.60;61.60;;;;;;5032048;28;1272;-70
2021/09/24 10:00:58;;;;;;;;;;;20.60;61.10;;;;;;5034880;28;1103;-70
2021/09/24 10:03:27;;;;;;;;;;;20.60;61.90;;;;;;5052734;28;1302;-70
2021/09/24 10:05:52;;;;;;;;;;;20.50;61.50;;;;;;5052919;28;1299;-70
2021/09/24 10:08:25;;;;;;;;;;;20.50;61.60;;;;;;5052164;28;1265;-70
2021/09/24 10:11:13;;;;;;;;;;;20.50;61.90;;;;;;5034346;28;1189;-70
2021/09/24 10:13:54;;;;;;;;;;;20.50;61.60;;;;;;5025772;28;2204;-70
2021/09/24 10:16:20;;;;;;;;;;;20.50;61.70;;;;;;5037956;28;1286;-70
2021/09/24 10:18:46;;;;;;;;;;;20.50;62.40;;;;;;5023628;28;1116;-71
2021/09/24 10:21:11;;;;;;;;;;;20.50;61.70;;;;;;5021230;28;1157;-70
2021/09/24 10:23:37;;;;;;;;;;;20.50;61.60;;;;;;5012511;28;1148;-71
2021/09/24 10:26:05;;;;;;;;;;;20.50;61.80;;;;;;5052459;28;1305;-70
2021/09/24 10:28:31;;;;;;;;;;;20.50;61.80;;;;;;5034671;28;1282;-70
2021/09/24 10:30:57;;;;;;;;;;;20.50;61.90;;;;;;5034422;28;1093;-70
2021/09/24 10:33:22;;;;;;;;;;;20.50;62.10;;;;;;5034286;28;1974;-70
2021/09/24 10:35:54;;;;;;;;;;;20.50;61.90;;;;;;5016402;28;2163;-71
2021/09/24 10:38:20;;;;;;;;;;;20.50;62.00;;;;;;5020445;28;1330;-71
2021/09/24 10:41:02;;;;;;;;;;;20.50;62.00;;;;;;5006239;28;1210;-71
2021/09/24 10:43:27;;;;;;;;;;;20.50;62.10;;;;;;5036985;28;1228;-70
2021/09/24 10:45:53;;;;;;;;;;;20.50;62.20;;;;;;5030793;28;1201;-71
2021/09/24 10:48:18;;;;;;;;;;;20.50;62.30;;;;;;4987494;28;1213;-71
2021/09/24 10:50:45;;;;;;;;;;;20.50;62.20;;;;;;5027583;28;1344;-70
2021/09/24 10:53:10;;;;;;;;;;;20.50;62.50;;;;;;5034500;28;1894;-71
2021/09/24 10:55:48;;;;;;;;;;;20.50;62.50;;;;;;5034344;28;1325;-71
2021/09/24 10:58:31;;;;;;;;;;;20.50;62.90;;;;;;5052132;28;1304;-70
2021/09/24 11:01:00;;;;;;;;;;;20.50;62.50;;;;;;5051928;28;1383;-70
2021/09/24 11:03:27;;;;;;;;;;;20.50;62.50;;;;;;5034383;28;1296;-70
2021/09/24 11:05:52;;;;;;;;;;;20.50;62.80;;;;;;5018026;28;1311;-70
2021/09/24 11:08:29;;;;;;;;;;;20.50;62.90;;;;;;5052030;28;1544;-70
2021/09/24 11:11:04;;;;;;;;;;;20.50;62.70;;;;;;5051655;28;1342;-70
2021/09/24 11:13:29;;;;;;;;;;;20.50;62.90;;;;;;5048077;28;1306;-70
2021/09/24 11:16:00;;;;;;;;;;;20.50;63.20;;;;;;5030970;28;1264;-70
2021/09/24 11:18:45;;;;;;;;;;;20.50;63.00;;;;;;5032057;28;1324;-70
2021/09/24 11:21:11;;;;;;;;;;;20.50;63.10;;;;;;5029873;28;1216;-70
2021/09/24 11:23:36;;;;;;;;;;;20.50;63.20;;;;;;5055577;28;1314;-70
2021/09/24 11:26:19;;;;;;;;;;;20.50;63.20;;;;;;5055576;28;1240;-70
2021/09/24 11:28:45;;;;;;;;;;;20.50;63.20;;;;;;5055614;28;1307;-70
2021/09/24 11:31:11;;;;;;;;;;;20.50;63.40;;;;;;5037273;28;1894;-70
2021/09/24 11:33:46;;;;;;;;;;;20.50;63.10;;;;;;5037526;28;1335;-70
2021/09/24 11:36:12;;;;;;;;;;;20.50;63.30;;;;;;5055238;28;1182;-70
2021/09/24 11:38:38;;;;;;;;;;;20.50;63.20;;;;;;5055472;28;1314;-70
2021/09/24 11:41:03;;;;;;;;;;;20.50;63.20;;;;;;5054850;28;1314;-70
2021/09/24 11:43:30;;;;;;;;;;;20.50;63.30;;;;;;5055406;28;1291;-70
2021/09/24 11:45:56;;;;;;;;;;;20.50;63.50;;;;;;5055800;28;1378;-70
2021/09/24 11:48:31;;;;;;;;;;;20.50;63.40;;;;;;5055570;28;1369;-70
2021/09/24 11:51:07;;;;;;;;;;;20.50;63.30;;;;;;5037026;28;1396;-70
2021/09/24 11:53:41;;;;;;;;;;;20.50;63.60;;;;;;5037545;28;1088;-70
2021/09/24 11:56:07;;;;;;;;;;;20.50;63.60;;;;;;5037052;28;1456;-70
2021/09/24 11:58:32;;;;;;;;;;;20.50;63.70;;;;;;5036892;28;1395;-70
2021/09/24 12:00:58;;;;;;;;;;;20.50;63.70;;;;;;5054394;28;1269;-70
2021/09/24 12:03:30;;;;;;;;;;;20.50;63.60;;;;;;5054818;28;1244;-70
2021/09/24 12:06:02;;;;;;;;;;;20.50;63.70;;;;;;5036972;28;1370;-70
2021/09/24 12:08:32;;;;;;;;;;;20.50;63.70;;;;;;5054601;28;1196;-70
2021/09/24 12:11:04;;;;;;;;;;;20.50;63.80;;;;;;5036596;28;1259;-70
2021/09/24 12:13:36;;;;;;;;;;;20.40;63.80;;;;;;5032743;28;1299;-70
2021/09/24 12:16:02;;;;;;;;;;;20.50;63.80;;;;;;5033379;28;1302;-70
2021/09/24 12:18:43;;;;;;;;;;;20.40;63.90;;;;;;5034555;28;1340;-70
2021/09/24 12:21:09;;;;;;;;;;;20.40;63.90;;;;;;5047926;28;1211;-70
2021/09/24 12:23:35;;;;;;;;;;;20.40;64.00;;;;;;5036811;28;1284;-70
2021/09/24 12:26:01;;;;;;;;;;;20.40;63.90;;;;;;5036312;28;1285;-70
2021/09/24 12:28:26;;;;;;;;;;;20.40;64.00;;;;;;5036366;28;1413;-69
2021/09/24 12:30:52;;;;;;;;;;;20.40;64.00;;;;;;5036185;28;1409;-70
2021/09/24 12:33:21;;;;;;;;;;;20.50;64.10;;;;;;5024660;28;1975;-70
2021/09/24 12:36:15;;;;;;;;;;;20.50;64.40;;;;;;5053635;28;1301;-70
2021/09/24 12:38:41;;;;;;;;;;;20.40;64.20;;;;;;5026485;28;1399;-70
2021/09/24 12:41:12;;;;;;;;;;;20.50;64.20;;;;;;5053703;28;1342;-70
2021/09/24 12:43:37;;;;;;;;;;;20.50;64.30;;;;;;5054083;28;1257;-70
2021/09/24 12:46:03;;;;;;;;;;;20.40;64.30;;;;;;5035868;28;1338;-70
2021/09/24 12:48:39;;;;;;;;;;;20.40;64.40;;;;;;5053993;28;1178;-70
2021/09/24 12:51:04;;;;;;;;;;;20.40;64.30;;;;;;5035404;28;1891;-70
2021/09/24 12:53:31;;;;;;;;;;;20.40;64.30;;;;;;5053892;28;1067;-70
2021/09/24 12:55:57;;;;;;;;;;;20.40;64.40;;;;;;5053725;28;1980;-70
2021/09/24 12:58:30;;;;;;;;;;;20.40;64.30;;;;;;5054008;28;1274;-70
2021/09/24 13:00:56;;;;;;;;;;;20.40;64.40;;;;;;5035557;28;1304;-70
2021/09/24 13:03:23;;;;;;;;;;;20.40;64.40;;;;;;5035591;28;1514;-70
2021/09/24 13:05:48;;;;;;;;;;;20.40;64.40;;;;;;5048824;28;1367;-70
2021/09/24 13:08:13;;;;;;;;;;;20.40;64.50;;;;;;5029606;28;1299;-70
2021/09/24 13:10:40;;;;;;;;;;;20.40;64.50;;;;;;5032607;28;1295;-70
2021/09/24 13:13:05;;;;;;;;;;;20.40;64.50;;;;;;5016023;28;1978;-70
2021/09/24 13:15:31;;;;;;;;;;;20.40;64.70;;;;;;5032234;28;1300;-71
2021/09/24 13:18:03;;;;;;;;;;;20.40;64.70;;;;;;5015739;28;1546;-70
2021/09/24 13:20:30;;;;;;;;;;;20.40;64.80;;;;;;5023530;28;1359;-70
2021/09/24 13:22:56;;;;;;;;;;;20.40;64.80;;;;;;5053402;28;1143;-70
2021/09/24 13:25:21;;;;;;;;;;;20.40;64.70;;;;;;5031829;28;1076;-70
2021/09/24 13:27:47;;;;;;;;;;;20.40;64.80;;;;;;5034708;28;1652;-68
2021/09/24 13:30:12;;;;;;;;;;;20.40;64.90;;;;;;5052439;28;1342;-69
2021/09/24 13:32:37;;;;;;;;;;;20.40;64.60;;;;;;5052906;28;1903;-70
2021/09/24 13:35:03;;;;;;;;;;;20.40;64.60;;;;;;5035084;28;1272;-70
2021/09/24 13:37:29;;;;;;;;;;;20.40;64.80;;;;;;5053187;28;1356;-69
2021/09/24 13:39:54;;;;;;;;;;;20.40;64.80;;;;;;5052777;28;1139;-70
2021/09/24 13:42:20;;;;;;;;;;;20.40;64.90;;;;;;5052675;28;1328;-69
2021/09/24 13:44:45;;;;;;;;;;;20.40;65.00;;;;;;5052075;28;1359;-70
2021/09/24 13:47:11;;;;;;;;;;;20.40;65.10;;;;;;5034828;28;1291;-69
2021/09/24 13:49:36;;;;;;;;;;;20.40;64.90;;;;;;5035209;28;1306;-70
2021/09/24 13:52:02;;;;;;;;;;;20.40;65.10;;;;;;5052442;28;1961;-69
2021/09/24 13:54:28;;;;;;;;;;;20.40;64.80;;;;;;5034913;28;1246;-70
2021/09/24 13:56:53;;;;;;;;;;;20.50;65.30;;;;;;5034898;28;1346;-70
2021/09/24 13:59:18;;;;;;;;;;;20.50;65.40;;;;;;5052887;28;1056;-69
2021/09/24 14:01:44;;;;;;;;;;;20.50;65.50;;;;;;5052101;28;1264;-70
2021/09/24 14:04:09;;;;;;;;;;;20.60;65.40;;;;;;5035078;28;1265;-69
2021/09/24 14:06:35;;;;;;;;;;;20.60;64.70;;;;;;5034740;28;1456;-70
2021/09/24 14:09:00;;;;;;;;;;;20.50;64.60;;;;;;5052777;28;1286;-70
2021/09/24 14:11:26;;;;;;;;;;;20.60;64.80;;;;;;5052513;28;1906;-70
2021/09/24 14:13:51;;;;;;;;;;;20.60;64.80;;;;;;5045666;28;1305;-70
2021/09/24 14:16:17;;;;;;;;;;;20.50;64.70;;;;;;5032366;28;1300;-70
2021/09/24 14:18:42;;;;;;;;;;;20.50;64.90;;;;;;5014949;28;1332;-70
2021/09/24 14:21:08;;;;;;;;;;;20.50;64.90;;;;;;5045650;28;1189;-70
2021/09/24 14:23:33;;;;;;;;;;;20.50;65.00;;;;;;5052640;28;1403;-70
2021/09/24 14:25:58;;;;;;;;;;;20.50;65.00;;;;;;5034507;28;1362;-69
2021/09/24 14:28:24;;;;;;;;;;;20.50;65.10;;;;;;5052377;28;1486;-71